createdAt,value
2018-12-08T00:01:35.695Z,4.20
2018-12-08T00:04:04.302Z,5.40
2018-12-08T00:06:32.781Z,3.07
2018-12-08T00:09:01.161Z,3.20
2018-12-08T00:11:29.568Z,2.93
2018-12-08T00:13:57.931Z,3.63
2018-12-08T00:16:26.444Z,2.97
2018-12-08T00:18:54.819Z,3.10
2018-12-08T00:21:23.255Z,3.60
2018-12-08T00:23:51.619Z,3.13
2018-12-08T00:26:20.189Z,2.73
2018-12-08T00:28:48.612Z,3.47
2018-12-08T00:31:28.612Z,3.73
2018-12-08T00:33:56.986Z,2.93
2018-12-08T00:36:26.051Z,3.10
2018-12-08T00:38:54.446Z,3.40
2018-12-08T00:41:22.803Z,3.13
2018-12-08T00:43:51.213Z,3.20
2018-12-08T00:46:19.842Z,3.43
2018-12-08T00:48:48.311Z,3.67
2018-12-08T00:51:16.671Z,2.87
2018-12-08T00:53:45.079Z,3.10
2018-12-08T00:56:13.444Z,3.03
2018-12-08T00:58:41.845Z,2.17
2018-12-08T01:01:10.282Z,2.63
2018-12-08T01:03:38.620Z,2.97
2018-12-08T01:06:07.036Z,3.53
2018-12-08T01:08:35.448Z,2.83
2018-12-08T01:11:03.934Z,2.93
2018-12-08T01:13:32.390Z,3.53
2018-12-08T01:16:00.747Z,3.30
2018-12-08T01:18:29.179Z,2.70
2018-12-08T01:20:57.546Z,2.87
2018-12-08T01:23:25.926Z,3.50
2018-12-08T01:25:54.310Z,2.67
2018-12-08T01:28:22.718Z,3.10
2018-12-08T01:30:51.145Z,2.63
2018-12-08T01:33:19.537Z,3.37
2018-12-08T01:35:47.996Z,3.40
2018-12-08T01:38:16.363Z,2.80
2018-12-08T01:40:44.732Z,3.00
2018-12-08T01:43:13.166Z,2.63
2018-12-08T01:45:41.570Z,3.70
2018-12-08T01:48:10.003Z,4.53
2018-12-08T01:50:38.510Z,3.03
2018-12-08T01:53:06.889Z,4.17
2018-12-08T01:55:35.624Z,2.77
2018-12-08T01:58:04.135Z,3.83
2018-12-08T02:00:32.539Z,4.33
2018-12-08T02:03:01.007Z,3.27
2018-12-08T02:05:29.410Z,2.77
2018-12-08T02:07:57.879Z,3.13
2018-12-08T02:10:26.296Z,3.60
2018-12-08T02:12:54.755Z,2.40
2018-12-08T02:15:23.164Z,3.93
2018-12-08T02:17:51.527Z,2.90
2018-12-08T02:20:20.016Z,3.20
2018-12-08T02:22:48.383Z,2.97
2018-12-08T02:25:16.987Z,2.93
2018-12-08T02:27:45.361Z,2.77
2018-12-08T02:30:14.313Z,3.33
2018-12-08T02:32:42.732Z,2.80
2018-12-08T02:35:11.136Z,3.73
2018-12-08T02:37:39.548Z,3.80
2018-12-08T02:40:09.159Z,3.30
2018-12-08T02:42:37.552Z,2.77
2018-12-08T02:45:06.198Z,3.03
2018-12-08T02:47:34.587Z,3.40
2018-12-08T02:50:03.164Z,2.80
2018-12-08T02:52:31.530Z,2.80
2018-12-08T02:54:59.883Z,3.23
2018-12-08T02:57:28.301Z,3.10
2018-12-08T02:59:56.703Z,2.70
2018-12-08T03:02:25.326Z,2.70
2018-12-08T03:04:53.719Z,3.40
2018-12-08T03:07:22.140Z,4.60
2018-12-08T03:09:50.517Z,2.93
2018-12-08T03:12:18.907Z,2.73
2018-12-08T03:14:47.399Z,3.10
2018-12-08T03:17:15.872Z,2.83
2018-12-08T03:19:44.385Z,1.97
2018-12-08T03:22:12.773Z,2.97
2018-12-08T03:24:41.183Z,2.70
2018-12-08T03:27:09.897Z,2.67
2018-12-08T03:29:38.260Z,2.80
2018-12-08T03:32:06.732Z,2.90
2018-12-08T03:34:35.190Z,2.80
2018-12-08T03:37:03.683Z,2.73
2018-12-08T03:39:32.083Z,3.07
2018-12-08T03:42:00.455Z,2.63
2018-12-08T03:44:29.090Z,2.80
2018-12-08T03:46:57.451Z,2.23
2018-12-08T03:49:25.842Z,2.53
2018-12-08T03:51:54.244Z,2.70
2018-12-08T03:54:22.637Z,2.47
2018-12-08T03:56:50.994Z,2.83
2018-12-08T03:59:19.421Z,2.87
2018-12-08T04:01:47.793Z,2.30
2018-12-08T04:04:16.169Z,3.10
2018-12-08T04:06:45.269Z,2.93
2018-12-08T04:09:14.118Z,3.00
2018-12-08T04:11:43.974Z,3.03
2018-12-08T04:14:13.691Z,4.00
2018-12-08T04:16:43.445Z,3.17
2018-12-08T04:19:12.159Z,3.27
2018-12-08T04:21:40.620Z,3.13
2018-12-08T04:24:09.055Z,4.47
2018-12-08T04:26:37.491Z,3.60
2018-12-08T04:29:05.904Z,3.37
2018-12-08T04:31:34.346Z,3.47
2018-12-08T04:34:02.728Z,3.50
2018-12-08T04:36:31.168Z,3.17
2018-12-08T04:38:59.576Z,3.37
2018-12-08T04:41:28.157Z,3.63
2018-12-08T04:43:56.574Z,3.30
2018-12-08T04:46:24.979Z,3.40
2018-12-08T04:48:53.515Z,3.57
2018-12-08T04:51:21.952Z,4.70
2018-12-08T04:53:51.106Z,3.97
2018-12-08T04:56:20.242Z,3.63
2018-12-08T04:58:48.620Z,3.80
2018-12-08T05:01:17.007Z,4.97
2018-12-08T05:03:45.388Z,3.87
2018-12-08T05:06:15.302Z,4.57
2018-12-08T05:08:43.815Z,3.90
2018-12-08T05:11:13.996Z,3.83
2018-12-08T05:13:47.450Z,4.93
2018-12-08T05:16:15.839Z,4.67
2018-12-08T05:18:45.676Z,5.33
2018-12-08T05:21:14.491Z,5.40
2018-12-08T05:23:44.355Z,4.77
2018-12-08T05:26:14.723Z,4.50
2018-12-08T05:28:43.671Z,5.60
2018-12-08T05:31:13.167Z,4.80
2018-12-08T05:33:41.707Z,4.90
2018-12-08T05:36:10.215Z,4.47
2018-12-08T05:38:38.637Z,6.23
2018-12-08T05:41:07.071Z,5.87
2018-12-08T05:43:35.475Z,6.50
2018-12-08T05:46:04.195Z,5.60
2018-12-08T05:48:32.654Z,6.53
2018-12-08T05:51:01.068Z,7.07
2018-12-08T05:53:29.488Z,6.63
2018-12-08T05:55:57.965Z,7.10
2018-12-08T05:58:26.430Z,8.53
2018-12-08T06:00:54.883Z,7.73
2018-12-08T06:03:23.321Z,8.53
2018-12-08T06:05:51.732Z,7.47
2018-12-08T06:08:20.145Z,8.77
2018-12-08T06:10:48.621Z,8.67
2018-12-08T06:13:19.250Z,9.47
2018-12-08T06:15:48.584Z,9.33
2018-12-08T06:18:17.137Z,9.83
2018-12-08T06:20:45.494Z,9.63
2018-12-08T06:23:13.856Z,9.83
2018-12-08T06:25:42.215Z,10.47
2018-12-08T06:28:26.684Z,11.00
2018-12-08T06:30:55.747Z,11.20
2018-12-08T06:33:24.111Z,8.80
2018-12-08T06:35:52.455Z,11.40
2018-12-08T06:38:20.846Z,10.07
2018-12-08T06:40:49.246Z,11.00
2018-12-08T06:43:17.628Z,10.07
2018-12-08T06:45:46.006Z,9.70
2018-12-08T06:48:14.384Z,10.70
2018-12-08T06:50:42.782Z,8.20
2018-12-08T06:53:11.149Z,8.93
2018-12-08T06:55:39.599Z,7.97
2018-12-08T06:58:08.053Z,7.47
2018-12-08T07:00:36.411Z,9.43
2018-12-08T07:03:04.835Z,9.97
2018-12-08T07:05:33.197Z,8.37
2018-12-08T07:08:01.580Z,8.90
2018-12-08T07:10:29.963Z,8.23
2018-12-08T07:12:58.358Z,8.20
2018-12-08T07:15:26.693Z,8.30
2018-12-08T07:17:55.096Z,7.83
2018-12-08T07:20:23.451Z,7.90
2018-12-08T07:22:52.024Z,7.83
2018-12-08T07:25:20.415Z,7.13
2018-12-08T07:27:48.779Z,7.13
2018-12-08T07:30:17.154Z,7.77
2018-12-08T07:32:45.500Z,7.23
2018-12-08T07:35:13.954Z,7.00
2018-12-08T07:37:42.320Z,7.30
2018-12-08T07:40:10.776Z,6.90
2018-12-08T07:42:39.135Z,8.33
2018-12-08T07:45:08.034Z,9.13
2018-12-08T07:47:36.619Z,8.67
2018-12-08T07:50:07.470Z,8.47
2018-12-08T07:52:36.051Z,8.50
2018-12-08T07:55:05.718Z,9.13
2018-12-08T07:57:34.090Z,12.03
2018-12-08T08:00:04.528Z,11.63
2018-12-08T08:02:32.932Z,11.20
2018-12-08T08:05:01.472Z,12.37
2018-12-08T08:07:29.834Z,9.80
2018-12-08T08:09:58.255Z,10.97
2018-12-08T08:12:26.626Z,11.23
2018-12-08T08:14:54.987Z,9.33
2018-12-08T08:17:23.379Z,8.10
2018-12-08T08:19:51.748Z,9.10
2018-12-08T08:22:20.099Z,9.37
2018-12-08T08:24:48.486Z,7.93
2018-12-08T08:27:16.850Z,8.43
2018-12-08T08:29:45.269Z,7.47
2018-12-08T08:32:13.719Z,8.47
2018-12-08T08:34:42.090Z,6.63
2018-12-08T08:37:10.471Z,6.67
2018-12-08T08:39:38.827Z,7.20
2018-12-08T08:42:07.246Z,6.77
2018-12-08T08:44:36.634Z,6.67
2018-12-08T08:47:05.123Z,7.13
2018-12-08T08:49:33.500Z,6.20
2018-12-08T08:52:01.911Z,6.97
2018-12-08T08:54:30.278Z,6.83
2018-12-08T08:56:58.795Z,6.53
2018-12-08T08:59:27.206Z,6.67
2018-12-08T09:01:55.630Z,6.50
2018-12-08T09:04:24.023Z,6.40
2018-12-08T09:06:52.367Z,6.40
2018-12-08T09:09:20.764Z,6.60
2018-12-08T09:11:49.119Z,6.67
2018-12-08T09:14:17.487Z,6.40
2018-12-08T09:16:45.842Z,6.47
2018-12-08T09:19:14.264Z,6.13
2018-12-08T09:21:42.648Z,6.40
2018-12-08T09:24:11.037Z,6.23
2018-12-08T09:26:39.967Z,5.90
2018-12-08T09:29:08.316Z,6.07
2018-12-08T09:31:36.743Z,5.87
2018-12-08T09:34:05.207Z,5.07
2018-12-08T09:36:33.587Z,5.73
2018-12-08T09:39:02.340Z,5.63
2018-12-08T09:41:30.720Z,6.10
2018-12-08T09:43:59.107Z,7.13
2018-12-08T09:46:27.479Z,5.70
2018-12-08T09:48:55.841Z,6.30
2018-12-08T09:51:24.257Z,5.50
2018-12-08T09:53:52.687Z,5.50
2018-12-08T09:56:21.112Z,6.30
2018-12-08T09:58:49.535Z,7.40
2018-12-08T10:01:17.919Z,5.13
2018-12-08T10:03:46.392Z,5.53
2018-12-08T10:06:14.759Z,5.27
2018-12-08T10:08:43.208Z,4.77
2018-12-08T10:11:11.555Z,5.40
2018-12-08T10:13:39.923Z,6.10
2018-12-08T10:16:08.327Z,5.77
2018-12-08T10:18:36.695Z,5.73
2018-12-08T10:21:05.160Z,5.30
2018-12-08T10:23:33.527Z,4.90
2018-12-08T10:26:01.958Z,5.13
2018-12-08T10:28:30.316Z,5.17
2018-12-08T10:30:58.736Z,5.90
2018-12-08T10:33:28.231Z,5.73
2018-12-08T10:35:56.832Z,4.77
2018-12-08T10:38:25.226Z,6.90
2018-12-08T10:40:53.633Z,5.53
2018-12-08T10:43:22.087Z,5.53
2018-12-08T10:45:50.505Z,6.87
2018-12-08T10:48:18.851Z,6.00
2018-12-08T10:50:47.257Z,5.27
2018-12-08T10:53:15.627Z,6.33
2018-12-08T10:55:44.079Z,7.20
2018-12-08T10:58:12.444Z,7.60
2018-12-08T11:00:46.179Z,6.50
2018-12-08T11:03:19.817Z,7.47
2018-12-08T11:05:48.170Z,6.67
2018-12-08T11:08:16.552Z,6.53
2018-12-08T11:10:44.898Z,6.37
2018-12-08T11:13:13.289Z,6.40
2018-12-08T11:15:41.647Z,6.90
2018-12-08T11:18:10.000Z,6.20
2018-12-08T11:20:38.362Z,5.93
2018-12-08T11:23:06.729Z,5.60
2018-12-08T11:25:35.103Z,5.90
2018-12-08T11:28:09.100Z,5.00
2018-12-08T11:30:37.484Z,4.40
2018-12-08T11:33:06.034Z,4.37
2018-12-08T11:35:34.439Z,3.60
2018-12-08T11:38:02.807Z,4.80
2018-12-08T11:40:31.275Z,4.17
2018-12-08T11:42:59.612Z,3.30
2018-12-08T11:45:28.135Z,4.00
2018-12-08T11:47:56.544Z,3.87
2018-12-08T11:50:25.054Z,3.97
2018-12-08T11:52:53.416Z,4.30
2018-12-08T11:55:29.966Z,5.27
2018-12-08T11:57:52.133Z,4.17
2018-12-08T12:00:20.665Z,4.27
2018-12-08T12:02:49.060Z,4.27
2018-12-08T12:05:17.420Z,4.00
2018-12-08T12:07:45.771Z,4.83
2018-12-08T12:10:14.421Z,4.37
2018-12-08T12:12:42.924Z,5.30
2018-12-08T12:15:11.282Z,4.70
2018-12-08T12:17:39.664Z,3.50
2018-12-08T12:20:08.305Z,3.90
2018-12-08T12:22:36.674Z,4.17
2018-12-08T12:25:05.750Z,4.57
2018-12-08T12:27:34.108Z,4.07
2018-12-08T12:30:02.479Z,4.57
2018-12-08T12:32:30.890Z,4.30
2018-12-08T12:34:59.336Z,5.17
2018-12-08T12:37:27.723Z,4.30
2018-12-08T12:39:56.086Z,4.90
2018-12-08T12:42:24.452Z,6.40
2018-12-08T12:44:52.871Z,5.77
2018-12-08T12:47:21.238Z,6.37
2018-12-08T12:49:49.610Z,5.87
2018-12-08T12:52:18.044Z,5.63
2018-12-08T12:54:46.423Z,6.07
2018-12-08T12:57:14.807Z,4.37
2018-12-08T12:59:43.219Z,5.73
2018-12-08T13:02:11.638Z,4.17
2018-12-08T13:04:40.099Z,4.57
2018-12-08T13:07:08.578Z,4.80
2018-12-08T13:09:36.941Z,5.13
2018-12-08T13:12:05.684Z,2.83
2018-12-08T13:14:34.095Z,4.20
2018-12-08T13:17:02.436Z,3.27
2018-12-08T13:19:31.026Z,2.80
2018-12-08T13:21:59.453Z,2.93
2018-12-08T13:24:32.256Z,3.00
2018-12-08T13:27:00.712Z,3.00
2018-12-08T13:29:29.202Z,3.30
2018-12-08T13:31:57.574Z,3.47
2018-12-08T13:34:28.483Z,3.30
2018-12-08T13:36:56.925Z,3.70
2018-12-08T13:39:25.297Z,2.87
2018-12-08T13:41:53.667Z,3.50
2018-12-08T13:44:37.536Z,3.10
2018-12-08T13:47:05.921Z,2.33
2018-12-08T13:49:35.882Z,2.47
2018-12-08T13:52:04.600Z,2.27
2018-12-08T13:54:48.698Z,2.20
2018-12-08T13:57:17.050Z,2.73
2018-12-08T13:59:56.585Z,2.50
2018-12-08T14:02:25.082Z,3.13
2018-12-08T14:04:53.478Z,2.93
2018-12-08T14:07:21.826Z,2.70
2018-12-08T14:09:50.675Z,3.83
2018-12-08T14:12:19.047Z,3.47
2018-12-08T14:14:47.384Z,2.47
2018-12-08T14:17:15.794Z,2.43
2018-12-08T14:19:44.170Z,3.43
2018-12-08T14:22:12.954Z,2.17
2018-12-08T14:24:41.740Z,2.30
2018-12-08T14:27:10.096Z,2.10
2018-12-08T14:29:38.494Z,2.20
2018-12-08T14:32:07.031Z,2.57
2018-12-08T14:34:35.428Z,3.00
2018-12-08T14:37:03.928Z,6.67
2018-12-08T14:39:32.307Z,4.60
2018-12-08T14:42:00.698Z,4.00
2018-12-08T14:44:29.073Z,2.20
2018-12-08T14:46:57.454Z,2.77
2018-12-08T14:49:25.796Z,3.20
2018-12-08T14:51:54.436Z,3.00
2018-12-08T14:54:23.021Z,3.07
2018-12-08T14:56:51.474Z,3.10
2018-12-08T14:59:19.872Z,3.30
2018-12-08T15:01:48.259Z,2.47
2018-12-08T15:04:16.574Z,3.30
2018-12-08T15:06:44.958Z,2.80
2018-12-08T15:09:13.307Z,3.07
2018-12-08T15:11:41.700Z,2.60
2018-12-08T15:14:10.151Z,3.00
2018-12-08T15:16:38.583Z,3.73
2018-12-08T15:19:07.035Z,3.30
2018-12-08T15:21:35.412Z,4.10
2018-12-08T15:24:03.854Z,3.77
2018-12-08T15:26:32.231Z,2.83
2018-12-08T15:29:00.616Z,4.57
2018-12-08T15:31:29.094Z,3.27
2018-12-08T15:33:57.511Z,5.73
2018-12-08T15:36:25.914Z,6.07
2018-12-08T15:38:54.510Z,4.00
2018-12-08T15:41:22.915Z,4.70
2018-12-08T15:43:51.315Z,4.33
2018-12-08T15:46:19.670Z,7.67
2018-12-08T15:48:48.030Z,2.20
2018-12-08T15:51:16.441Z,3.47
2018-12-08T15:53:44.915Z,2.07
2018-12-08T15:56:13.271Z,3.53
2018-12-08T15:58:41.671Z,2.83
2018-12-08T16:01:10.113Z,3.13
2018-12-08T16:03:38.539Z,2.70
2018-12-08T16:06:07.010Z,2.27
2018-12-08T16:08:35.404Z,3.00
2018-12-08T16:11:03.875Z,2.90
2018-12-08T16:13:32.282Z,2.57
2018-12-08T16:16:00.638Z,2.13
2018-12-08T16:18:29.149Z,2.60
2018-12-08T16:20:57.607Z,2.60
2018-12-08T16:23:26.000Z,2.83
2018-12-08T16:25:54.424Z,2.53
2018-12-08T16:28:22.774Z,2.90
2018-12-08T16:30:51.172Z,3.00
2018-12-08T16:33:19.632Z,3.50
2018-12-08T16:35:48.134Z,2.70
2018-12-08T16:38:16.467Z,2.83
2018-12-08T16:40:44.935Z,3.57
2018-12-08T16:43:13.290Z,3.57
2018-12-08T16:45:41.764Z,3.37
2018-12-08T16:48:10.124Z,3.73
2018-12-08T16:50:41.050Z,4.03
2018-12-08T16:53:09.724Z,3.27
2018-12-08T16:55:38.258Z,3.23
2018-12-08T16:58:06.623Z,2.97
2018-12-08T17:00:35.039Z,2.97
2018-12-08T17:03:03.679Z,3.20
2018-12-08T17:05:32.607Z,3.70
2018-12-08T17:08:01.043Z,4.13
2018-12-08T17:10:29.399Z,4.87
2018-12-08T17:12:57.796Z,3.77
2018-12-08T17:15:26.323Z,4.27
2018-12-08T17:17:55.207Z,4.57
2018-12-08T17:20:23.631Z,4.20
2018-12-08T17:22:52.202Z,4.37
2018-12-08T17:25:20.858Z,4.10
2018-12-08T17:27:49.239Z,3.10
2018-12-08T17:30:17.771Z,3.50
2018-12-08T17:32:46.142Z,3.37
2018-12-08T17:35:14.665Z,3.50
2018-12-08T17:37:43.156Z,3.63
2018-12-08T17:40:11.519Z,3.13
2018-12-08T17:42:40.063Z,3.07
2018-12-08T17:45:08.823Z,2.97
2018-12-08T17:47:37.330Z,2.73
2018-12-08T17:50:06.720Z,3.60
2018-12-08T17:52:35.068Z,3.37
2018-12-08T17:55:03.471Z,3.13
2018-12-08T17:57:31.814Z,3.87
2018-12-08T18:00:00.198Z,4.10
2018-12-08T18:02:28.782Z,3.73
2018-12-08T18:04:57.251Z,3.30
2018-12-08T18:07:25.703Z,3.50
2018-12-08T18:09:54.063Z,3.77
2018-12-08T18:12:22.501Z,3.20
2018-12-08T18:14:51.784Z,3.63
2018-12-08T18:17:20.267Z,3.63
2018-12-08T18:19:48.627Z,3.77
2018-12-08T18:22:17.154Z,4.17
2018-12-08T18:24:45.504Z,3.80
2018-12-08T18:27:14.120Z,3.60
2018-12-08T18:29:42.470Z,4.27
2018-12-08T18:32:10.831Z,4.10
2018-12-08T18:34:39.305Z,3.57
2018-12-08T18:37:07.692Z,3.30
2018-12-08T18:39:36.035Z,2.97
2018-12-08T18:42:04.495Z,3.80
2018-12-08T18:44:32.848Z,3.93
2018-12-08T18:47:01.229Z,3.17
2018-12-08T18:49:29.700Z,3.93
2018-12-08T18:51:58.175Z,4.20
2018-12-08T18:54:26.607Z,4.10
2018-12-08T18:56:55.067Z,4.10
2018-12-08T18:59:23.504Z,3.83
2018-12-08T19:01:51.876Z,3.60
2018-12-08T19:04:20.305Z,3.80
2018-12-08T19:06:48.719Z,3.27
2018-12-08T19:09:17.115Z,5.20
2018-12-08T19:11:45.539Z,3.57
2018-12-08T19:14:13.940Z,2.70
2018-12-08T19:16:49.086Z,3.67
2018-12-08T19:19:17.471Z,3.23
2018-12-08T19:21:45.847Z,4.33
2018-12-08T19:24:15.423Z,2.83
2018-12-08T19:26:44.979Z,2.77
2018-12-08T19:29:13.487Z,3.30
2018-12-08T19:31:42.315Z,2.90
2018-12-08T19:34:10.675Z,3.30
2018-12-08T19:36:39.031Z,3.20
2018-12-08T19:39:07.664Z,3.37
2018-12-08T19:41:36.186Z,3.37
2018-12-08T19:44:04.550Z,3.47
2018-12-08T19:46:33.031Z,3.13
2018-12-08T19:49:01.416Z,2.97
2018-12-08T19:51:29.796Z,5.10
2018-12-08T19:53:58.220Z,3.27
2018-12-08T19:56:26.759Z,3.33
2018-12-08T19:58:55.167Z,3.70
2018-12-08T20:01:23.501Z,3.87
2018-12-08T20:03:51.859Z,3.47
2018-12-08T20:06:20.404Z,4.20
2018-12-08T20:08:48.887Z,4.60
2018-12-08T20:11:17.384Z,3.23
2018-12-08T20:13:45.768Z,3.67
2018-12-08T20:16:14.150Z,3.73
2018-12-08T20:18:42.523Z,3.50
2018-12-08T20:21:10.886Z,4.33
2018-12-08T20:23:39.246Z,3.87
2018-12-08T20:26:07.647Z,4.07
2018-12-08T20:28:36.049Z,4.40
2018-12-08T20:31:04.486Z,4.37
2018-12-08T20:33:32.905Z,4.30
2018-12-08T20:36:01.309Z,4.03
2018-12-08T20:38:29.703Z,4.70
2018-12-08T20:40:58.099Z,4.33
2018-12-08T20:43:26.599Z,4.13
2018-12-08T20:45:55.004Z,4.23
2018-12-08T20:48:23.382Z,4.43
2018-12-08T20:50:51.811Z,4.43
2018-12-08T20:53:20.218Z,4.00
2018-12-08T20:55:48.704Z,4.63
2018-12-08T20:58:17.160Z,5.17
2018-12-08T21:00:45.596Z,5.10
2018-12-08T21:03:13.972Z,4.77
2018-12-08T21:05:42.476Z,5.30
2018-12-08T21:08:10.861Z,5.13
2018-12-08T21:10:39.399Z,4.93
2018-12-08T21:13:07.843Z,5.37
2018-12-08T21:15:36.385Z,5.73
2018-12-08T21:18:04.752Z,4.97
2018-12-08T21:20:33.245Z,5.30
2018-12-08T21:23:01.649Z,5.27
2018-12-08T21:25:30.105Z,4.90
2018-12-08T21:27:58.492Z,5.80
2018-12-08T21:30:26.859Z,5.13
2018-12-08T21:32:55.224Z,5.70
2018-12-08T21:35:23.687Z,6.03
2018-12-08T21:37:52.062Z,6.27
2018-12-08T21:40:28.478Z,6.30
2018-12-08T21:42:56.860Z,6.83
2018-12-08T21:45:25.951Z,6.07
2018-12-08T21:47:54.305Z,7.37
2018-12-08T21:50:22.701Z,7.63
2018-12-08T21:52:51.053Z,7.20
2018-12-08T21:55:19.468Z,7.63
2018-12-08T21:57:47.838Z,8.30
2018-12-08T22:00:16.243Z,8.40
2018-12-08T22:02:44.707Z,9.23
2018-12-08T22:05:13.186Z,11.33
2018-12-08T22:07:41.582Z,11.03
2018-12-08T22:10:09.949Z,11.60
2018-12-08T22:12:38.319Z,11.97
2018-12-08T22:15:13.090Z,11.37
2018-12-08T22:17:42.746Z,10.87
2018-12-08T22:20:11.116Z,11.93
2018-12-08T22:22:39.483Z,12.43
2018-12-08T22:25:07.882Z,12.87
2018-12-08T22:27:36.268Z,13.43
2018-12-08T22:30:05.480Z,12.73
2018-12-08T22:32:33.820Z,13.40
2018-12-08T22:35:02.187Z,15.67
2018-12-08T22:37:30.567Z,14.47
2018-12-08T22:39:58.963Z,16.93
2018-12-08T22:42:27.340Z,15.87
2018-12-08T22:44:55.711Z,15.57
2018-12-08T22:47:24.104Z,14.67
2018-12-08T22:49:52.464Z,15.53
2018-12-08T22:52:20.851Z,14.83
2018-12-08T22:54:49.228Z,16.87
2018-12-08T22:57:17.628Z,19.33
2018-12-08T22:59:46.054Z,16.40
2018-12-08T23:02:14.516Z,18.73
2018-12-08T23:04:42.899Z,18.63
2018-12-08T23:07:11.264Z,18.07
2018-12-08T23:09:39.662Z,19.60
2018-12-08T23:12:08.156Z,20.73
2018-12-08T23:14:36.644Z,19.80
2018-12-08T23:17:04.999Z,18.53
2018-12-08T23:19:33.423Z,18.53
2018-12-08T23:22:01.802Z,19.17
2018-12-08T23:24:30.223Z,18.53
2018-12-08T23:26:58.629Z,19.17
2018-12-08T23:29:27.003Z,19.67
2018-12-08T23:31:55.523Z,17.03
2018-12-08T23:34:23.872Z,18.63
2018-12-08T23:36:52.233Z,19.17
2018-12-08T23:39:20.619Z,19.17
2018-12-08T23:41:49.122Z,17.57
2018-12-08T23:44:17.519Z,19.80
2018-12-08T23:46:45.911Z,19.40
2018-12-08T23:49:14.291Z,20.03
2018-12-08T23:51:42.690Z,19.77
2018-12-08T23:54:11.046Z,19.13
2018-12-08T23:56:39.468Z,18.70
2018-12-08T23:59:07.907Z,20.00
